King William's Town, South Africa
Current Conditions -  °F | °C
As of 10:31 AM on Monday 20 Oct 2014 (Local Time) from FAEL Reporting Station
Drizzle Drizzle  
Wind Chill: 63°   Ceiling: 1100
Heat Index: 63°   Visibility: 3mi
Dew Point: 59°   Wind: 16mph
Humidity: 88%   Direction: 80°E
Pressure: 30.18"   Gusts: NA
Location:  32.88°S, 27.4°E
Report Text: FAEL 200831Z 08014KT 5000 -DZ FEW009 BKN011 BKN014 17/15 Q1022
Loading
Personal Weather Stations






























Interactive Weather Map
Tropical Storm Tracking
New forecast layout! Learn more

10-Day Weather Forecast

Advertisements
Track Severe Weather on mobile